createdAt,value
2018-04-07T00:02:17.872Z,84.10
2018-04-07T00:04:46.154Z,83.60
2018-04-07T00:07:13.686Z,83.60
2018-04-07T00:09:41.191Z,85.20
2018-04-07T00:12:08.719Z,84.10
2018-04-07T00:14:36.637Z,84.80
2018-04-07T00:17:04.180Z,86.30
2018-04-07T00:19:31.739Z,84.10
2018-04-07T00:21:59.291Z,85.30
2018-04-07T00:24:26.819Z,84.60
2018-04-07T00:26:54.333Z,84.10
2018-04-07T00:29:21.871Z,86.70
2018-04-07T00:31:49.449Z,86.80
2018-04-07T00:34:17.759Z,86.70
2018-04-07T00:36:45.268Z,86.70
2018-04-07T00:39:12.787Z,86.60
2018-04-07T00:41:40.327Z,88.30
2018-04-07T00:44:07.843Z,89.30
2018-04-07T00:46:35.403Z,88.60
2018-04-07T00:49:02.976Z,88.60
2018-04-07T00:51:30.608Z,88.20
2018-04-07T00:53:58.154Z,88.40
2018-04-07T00:56:25.666Z,88.60
2018-04-07T00:58:53.192Z,90.30
2018-04-07T01:01:20.694Z,90.00
2018-04-07T01:03:48.241Z,88.80
2018-04-07T01:06:15.760Z,89.20
2018-04-07T01:08:44.071Z,88.90
2018-04-07T01:11:11.606Z,88.80
2018-04-07T01:13:41.131Z,86.80
2018-04-07T01:16:09.419Z,89.20
2018-04-07T01:18:37.703Z,88.30
2018-04-07T01:21:05.896Z,88.20
2018-04-07T01:23:33.414Z,88.30
2018-04-07T01:26:00.992Z,88.60
2018-04-07T01:28:28.564Z,89.70
2018-04-07T01:30:56.105Z,89.50
2018-04-07T01:33:23.615Z,88.90
2018-04-07T01:35:51.153Z,89.00
2018-04-07T01:38:18.664Z,90.10
2018-04-07T01:40:46.220Z,89.30
2018-04-07T01:43:13.728Z,89.70
2018-04-07T01:45:42.009Z,91.00
2018-04-07T01:48:09.537Z,90.70
2018-04-07T01:50:37.068Z,90.50
2018-04-07T01:53:05.405Z,90.50
2018-04-07T01:55:32.974Z,90.50
2018-04-07T01:58:00.615Z,90.70
2018-04-07T02:00:28.155Z,90.60
2018-04-07T02:02:56.470Z,90.30
2018-04-07T02:05:24.751Z,90.30
2018-04-07T02:07:53.022Z,90.50
2018-04-07T02:10:20.582Z,90.50
2018-04-07T02:12:48.096Z,90.70
2018-04-07T02:15:15.619Z,91.00
2018-04-07T02:17:43.123Z,91.10
2018-04-07T02:20:11.424Z,91.00
2018-04-07T02:22:38.928Z,91.10
2018-04-07T02:25:06.450Z,91.00
2018-04-07T02:27:34.759Z,91.00
2018-04-07T02:30:02.273Z,90.90
2018-04-07T02:32:29.859Z,91.70
2018-04-07T02:34:58.173Z,91.40
2018-04-07T02:37:25.703Z,91.40
2018-04-07T02:39:53.235Z,91.30
2018-04-07T02:42:20.880Z,91.70
2018-04-07T02:44:49.165Z,91.50
2018-04-07T02:47:17.344Z,91.50
2018-04-07T02:49:45.614Z,92.60
2018-04-07T02:52:13.120Z,92.70
2018-04-07T02:54:41.407Z,92.20
2018-04-07T02:57:08.926Z,92.10
2018-04-07T02:59:36.447Z,92.30
2018-04-07T03:02:04.003Z,92.00
2018-04-07T03:04:31.605Z,92.10
2018-04-07T03:06:59.188Z,92.10
2018-04-07T03:09:27.513Z,92.70
2018-04-07T03:11:55.032Z,92.80
2018-04-07T03:14:22.565Z,92.10
2018-04-07T03:16:50.103Z,92.10
2018-04-07T03:19:17.603Z,92.10
2018-04-07T03:21:45.139Z,91.60
2018-04-07T03:24:12.651Z,91.70
2018-04-07T03:26:40.170Z,92.10
2018-04-07T03:29:07.673Z,92.10
2018-04-07T03:31:35.215Z,92.00
2018-04-07T03:34:02.787Z,92.00
2018-04-07T03:36:30.396Z,92.60
2018-04-07T03:38:57.932Z,92.10
2018-04-07T03:41:25.439Z,91.90
2018-04-07T03:43:52.969Z,92.40
2018-04-07T03:46:20.482Z,92.60
2018-04-07T03:48:49.122Z,92.70
2018-04-07T03:51:16.642Z,92.60
2018-04-07T03:53:44.154Z,92.30
2018-04-07T03:56:11.675Z,92.60
2018-04-07T03:58:39.187Z,92.50
2018-04-07T04:01:07.482Z,92.80
2018-04-07T04:03:35.012Z,92.70
2018-04-07T04:06:02.609Z,92.70
2018-04-07T04:08:33.491Z,92.70
2018-04-07T04:11:01.051Z,92.70
2018-04-07T04:13:28.640Z,92.90
2018-04-07T04:15:56.157Z,93.00
2018-04-07T04:18:23.682Z,93.10
2018-04-07T04:20:51.428Z,92.90
2018-04-07T04:23:18.998Z,92.90
2018-04-07T04:25:46.537Z,93.30
2018-04-07T04:28:14.054Z,93.50
2018-04-07T04:30:41.582Z,93.60
2018-04-07T04:33:09.111Z,93.50
2018-04-07T04:35:36.669Z,93.30
2018-04-07T04:38:04.219Z,93.20
2018-04-07T04:40:32.572Z,93.10
2018-04-07T04:43:00.102Z,93.20
2018-04-07T04:45:27.640Z,93.10
2018-04-07T04:47:55.202Z,93.60
2018-04-07T04:50:22.723Z,93.20
2018-04-07T04:52:50.315Z,93.80
2018-04-07T04:55:17.824Z,93.10
2018-04-07T04:57:46.146Z,93.60
2018-04-07T05:00:13.667Z,93.50
2018-04-07T05:02:41.195Z,93.80
2018-04-07T05:05:08.712Z,94.30
2018-04-07T05:07:36.244Z,94.00
2018-04-07T05:10:03.808Z,93.80
2018-04-07T05:12:31.338Z,93.80
2018-04-07T05:14:59.694Z,93.80
2018-04-07T05:17:27.231Z,93.80
2018-04-07T05:19:55.258Z,93.50
2018-04-07T05:22:22.758Z,93.60
2018-04-07T05:24:51.533Z,95.30
2018-04-07T05:27:20.041Z,95.30
2018-04-07T05:29:48.359Z,93.70
2018-04-07T05:32:17.754Z,94.30
2018-04-07T05:34:45.395Z,94.30
2018-04-07T05:37:12.931Z,94.00
2018-04-07T05:39:40.442Z,94.20
2018-04-07T05:42:08.031Z,93.90
2018-04-07T05:44:36.348Z,94.20
2018-04-07T05:47:03.917Z,94.10
2018-04-07T05:49:31.459Z,94.00
2018-04-07T05:51:59.794Z,94.00
2018-04-07T05:54:27.333Z,93.90
2018-04-07T05:56:55.809Z,93.70
2018-04-07T05:59:23.339Z,93.70
2018-04-07T06:01:50.872Z,93.80
2018-04-07T06:04:18.407Z,93.50
2018-04-07T06:06:46.375Z,94.10
2018-04-07T06:09:13.921Z,93.80
2018-04-07T06:11:41.436Z,93.40
2018-04-07T06:14:08.948Z,93.40
2018-04-07T06:16:36.467Z,93.10
2018-04-07T06:19:04.004Z,93.10
2018-04-07T06:21:31.556Z,93.10
2018-04-07T06:23:59.182Z,92.40
2018-04-07T06:26:27.480Z,92.10
2018-04-07T06:28:55.008Z,92.10
2018-04-07T06:31:22.513Z,91.30
2018-04-07T06:33:50.112Z,91.80
2018-04-07T06:36:17.666Z,90.80
2018-04-07T06:38:45.207Z,90.30
2018-04-07T06:41:12.712Z,88.50
2018-04-07T06:43:40.222Z,91.00
2018-04-07T06:46:07.770Z,89.00
2018-04-07T06:48:36.082Z,90.20
2018-04-07T06:51:04.095Z,90.20
2018-04-07T06:53:32.405Z,89.60
2018-04-07T06:56:00.420Z,90.10
2018-04-07T06:58:27.996Z,86.70
2018-04-07T07:00:55.519Z,86.30
2018-04-07T07:03:23.063Z,83.00
2018-04-07T07:05:50.604Z,83.50
2018-04-07T07:08:18.156Z,85.30
2018-04-07T07:10:46.463Z,82.60
2018-04-07T07:13:14.016Z,82.60
2018-04-07T07:15:42.297Z,82.30
2018-04-07T07:18:09.823Z,82.30
2018-04-07T07:20:37.368Z,82.90
2018-04-07T07:23:05.336Z,80.20
2018-04-07T07:25:33.747Z,82.60
2018-04-07T07:28:01.330Z,83.60
2018-04-07T07:30:28.919Z,84.90
2018-04-07T07:32:56.490Z,81.40
2018-04-07T07:35:24.004Z,83.70
2018-04-07T07:37:52.317Z,81.20
2018-04-07T07:40:19.885Z,81.10
2018-04-07T07:42:47.422Z,80.20
2018-04-07T07:45:14.931Z,79.90
2018-04-07T07:47:42.467Z,77.90
2018-04-07T07:50:09.977Z,78.50
2018-04-07T07:52:37.491Z,80.40
2018-04-07T07:55:05.053Z,80.00
2018-04-07T07:57:32.611Z,77.60
2018-04-07T08:00:00.282Z,79.80
2018-04-07T08:02:27.816Z,74.10
2018-04-07T08:04:55.389Z,73.00
2018-04-07T08:07:22.924Z,74.00
2018-04-07T08:09:50.472Z,75.50
2018-04-07T08:12:18.013Z,74.30
2018-04-07T08:14:45.535Z,70.70
2018-04-07T08:17:13.097Z,76.30
2018-04-07T08:19:40.636Z,76.30
2018-04-07T08:22:08.189Z,72.90
2018-04-07T08:24:35.743Z,73.30
2018-04-07T08:27:04.038Z,71.70
2018-04-07T08:29:32.585Z,65.80
2018-04-07T08:32:00.223Z,65.80
2018-04-07T08:34:27.780Z,65.00
2018-04-07T08:36:55.322Z,63.70
2018-04-07T08:39:22.926Z,62.00
2018-04-07T08:41:50.452Z,57.70
2018-04-07T08:44:17.959Z,64.80
2018-04-07T08:46:46.262Z,60.00
2018-04-07T08:49:13.773Z,60.50
2018-04-07T08:51:41.306Z,62.10
2018-04-07T08:54:09.281Z,59.60
2018-04-07T08:56:36.879Z,57.20
2018-04-07T08:59:04.460Z,57.70
2018-04-07T09:01:32.063Z,53.70
2018-04-07T09:04:00.429Z,58.20
2018-04-07T09:06:27.970Z,58.20
2018-04-07T09:08:55.560Z,61.20
2018-04-07T09:11:23.100Z,57.50
2018-04-07T09:13:50.663Z,58.60
2018-04-07T09:16:18.207Z,57.00
2018-04-07T09:18:45.718Z,54.10
2018-04-07T09:21:13.251Z,56.20
2018-04-07T09:23:40.758Z,55.20
2018-04-07T09:26:08.291Z,55.30
2018-04-07T09:28:35.816Z,58.30
2018-04-07T09:31:09.082Z,54.80
2018-04-07T09:33:37.393Z,53.20
2018-04-07T09:36:04.939Z,53.00
2018-04-07T09:38:32.556Z,51.00
2018-04-07T09:41:00.353Z,53.20
2018-04-07T09:43:27.887Z,53.90
2018-04-07T09:45:55.401Z,53.40
2018-04-07T09:48:22.932Z,52.10
2018-04-07T09:50:50.509Z,53.00
2018-04-07T09:53:18.006Z,55.80
2018-04-07T09:55:45.556Z,52.30
2018-04-07T09:58:13.068Z,53.40
2018-04-07T10:00:47.195Z,49.80
2018-04-07T10:03:21.903Z,53.10
2018-04-07T10:05:49.475Z,51.80
2018-04-07T10:08:16.999Z,53.60
2018-04-07T10:10:45.288Z,53.40
2018-04-07T10:13:13.583Z,49.10
2018-04-07T10:15:41.103Z,49.00
2018-04-07T10:18:08.660Z,49.20
2018-04-07T10:20:36.188Z,48.40
2018-04-07T10:23:04.553Z,46.80
2018-04-07T10:25:32.260Z,46.70
2018-04-07T10:27:59.907Z,48.30
2018-04-07T10:30:27.478Z,47.80
2018-04-07T10:32:55.039Z,46.80
2018-04-07T10:35:22.552Z,46.40
2018-04-07T10:37:50.858Z,45.70
2018-04-07T10:40:18.387Z,46.10
2018-04-07T10:42:46.697Z,47.10
2018-04-07T10:45:14.215Z,47.10
2018-04-07T10:47:41.727Z,45.00
2018-04-07T10:50:10.035Z,42.10
2018-04-07T10:52:37.592Z,42.10
2018-04-07T10:55:05.186Z,43.80
2018-04-07T10:57:32.747Z,45.10
2018-04-07T11:00:00.339Z,44.60
2018-04-07T11:02:27.900Z,42.50
2018-04-07T11:04:55.414Z,45.00
2018-04-07T11:07:22.964Z,42.20
2018-04-07T11:09:50.579Z,41.90
2018-04-07T11:12:18.103Z,40.70
2018-04-07T11:14:45.648Z,41.60
2018-04-07T11:17:13.162Z,40.70
2018-04-07T11:19:41.496Z,42.50
2018-04-07T11:22:09.774Z,43.60
2018-04-07T11:24:37.308Z,43.60
2018-04-07T11:27:04.888Z,41.30
2018-04-07T11:29:32.555Z,43.00
2018-04-07T11:32:00.929Z,41.90
2018-04-07T11:34:29.375Z,41.20
2018-04-07T11:36:56.926Z,41.00
2018-04-07T11:39:24.435Z,39.80
2018-04-07T11:41:52.036Z,41.90
2018-04-07T11:44:19.597Z,42.80
2018-04-07T11:46:47.144Z,40.70
2018-04-07T11:49:14.655Z,41.60
2018-04-07T11:51:42.179Z,41.40
2018-04-07T11:54:09.708Z,41.70
2018-04-07T11:56:37.220Z,38.40
2018-04-07T11:59:04.811Z,37.50
2018-04-07T12:01:32.432Z,40.60
2018-04-07T12:04:01.035Z,38.60
2018-04-07T12:06:28.667Z,38.50
2018-04-07T12:08:56.187Z,38.50
2018-04-07T12:11:23.793Z,41.00
2018-04-07T12:13:52.035Z,40.70
2018-04-07T12:16:20.318Z,39.10
2018-04-07T12:18:47.860Z,38.50
2018-04-07T12:21:15.390Z,39.40
2018-04-07T12:23:42.943Z,37.20
2018-04-07T12:26:11.220Z,40.50
2018-04-07T12:28:38.755Z,40.40
2018-04-07T12:31:06.331Z,38.60
2018-04-07T12:33:33.926Z,38.50
2018-04-07T12:36:01.515Z,38.00
2018-04-07T12:38:29.868Z,38.70
2018-04-07T12:40:57.387Z,38.60
2018-04-07T12:43:26.060Z,39.50
2018-04-07T12:45:53.571Z,36.70
2018-04-07T12:48:21.107Z,38.30
2018-04-07T12:50:48.621Z,40.20
2018-04-07T12:53:17.739Z,38.00
2018-04-07T12:55:45.289Z,38.10
2018-04-07T12:58:12.804Z,39.80
2018-04-07T13:00:40.347Z,36.60
2018-04-07T13:03:07.879Z,37.40
2018-04-07T13:05:36.230Z,36.30
2018-04-07T13:08:03.800Z,36.30
2018-04-07T13:10:32.150Z,36.80
2018-04-07T13:12:59.727Z,36.80
2018-04-07T13:15:27.261Z,39.70
2018-04-07T13:17:54.779Z,40.70
2018-04-07T13:20:22.315Z,37.40
2018-04-07T13:22:50.604Z,37.70
2018-04-07T13:25:18.907Z,36.00
2018-04-07T13:27:46.431Z,35.90
2018-04-07T13:30:13.947Z,36.90
2018-04-07T13:32:41.484Z,37.70
2018-04-07T13:35:09.003Z,35.40
2018-04-07T13:37:36.579Z,36.90
2018-04-07T13:40:04.153Z,38.10
2018-04-07T13:42:31.772Z,36.50
2018-04-07T13:45:00.128Z,35.20
2018-04-07T13:47:27.662Z,35.10
2018-04-07T13:49:55.191Z,36.10
2018-04-07T13:52:22.736Z,37.40
2018-04-07T13:54:50.308Z,36.40
2018-04-07T13:57:17.855Z,37.60
2018-04-07T13:59:45.408Z,37.50
2018-04-07T14:02:13.858Z,36.90
2018-04-07T14:04:41.381Z,36.90
2018-04-07T14:07:08.912Z,38.70
2018-04-07T14:09:36.588Z,38.60
2018-04-07T14:12:04.135Z,39.10
2018-04-07T14:14:31.767Z,38.10
2018-04-07T14:16:59.411Z,38.10
2018-04-07T14:19:27.728Z,37.70
2018-04-07T14:21:55.259Z,37.70
2018-04-07T14:24:22.798Z,39.20
2018-04-07T14:26:50.375Z,37.00
2018-04-07T14:29:17.900Z,39.50
2018-04-07T14:31:46.198Z,36.80
2018-04-07T14:34:13.759Z,36.70
2018-04-07T14:36:42.059Z,36.40
2018-04-07T14:39:09.572Z,36.30
2018-04-07T14:41:37.876Z,39.80
2018-04-07T14:44:05.437Z,40.00
2018-04-07T14:46:33.032Z,35.80
2018-04-07T14:49:01.385Z,38.90
2018-04-07T14:51:29.755Z,38.90
2018-04-07T14:53:57.300Z,36.50
2018-04-07T14:56:24.811Z,38.00
2018-04-07T14:58:53.670Z,38.30
2018-04-07T15:01:21.958Z,38.40
2018-04-07T15:03:50.286Z,37.70
2018-04-07T15:06:18.584Z,36.40
2018-04-07T15:08:47.453Z,38.10
2018-04-07T15:11:14.979Z,37.90
2018-04-07T15:13:42.528Z,38.00
2018-04-07T15:16:10.871Z,37.20
2018-04-07T15:18:38.375Z,37.50
2018-04-07T15:21:05.980Z,36.60
2018-04-07T15:23:35.005Z,39.40
2018-04-07T15:26:03.397Z,38.70
2018-04-07T15:28:32.116Z,42.00
2018-04-07T15:31:00.453Z,39.50
2018-04-07T15:33:28.022Z,39.50
2018-04-07T15:35:56.348Z,38.30
2018-04-07T15:38:24.648Z,40.20
2018-04-07T15:40:52.931Z,40.60
2018-04-07T15:43:21.259Z,39.40
2018-04-07T15:45:48.791Z,39.20
2018-04-07T15:48:16.352Z,41.20
2018-04-07T15:50:43.873Z,39.30
2018-04-07T15:53:11.410Z,40.60
2018-04-07T15:55:39.691Z,41.20
2018-04-07T15:58:07.967Z,41.60
2018-04-07T16:00:35.575Z,41.40
2018-04-07T16:03:03.314Z,41.60
2018-04-07T16:05:31.685Z,42.00
2018-04-07T16:07:59.927Z,42.00
2018-04-07T16:10:28.336Z,42.50
2018-04-07T16:12:55.871Z,42.20
2018-04-07T16:15:24.275Z,40.70
2018-04-07T16:17:51.863Z,40.60
2018-04-07T16:20:19.375Z,40.30
2018-04-07T16:22:46.914Z,45.40
2018-04-07T16:25:14.436Z,48.70
2018-04-07T16:27:42.779Z,42.10
2018-04-07T16:30:10.288Z,42.20
2018-04-07T16:32:37.845Z,40.90
2018-04-07T16:35:05.375Z,42.30
2018-04-07T16:37:33.055Z,40.70
2018-04-07T16:40:00.706Z,43.90
2018-04-07T16:42:28.382Z,43.70
2018-04-07T16:44:55.937Z,46.40
2018-04-07T16:47:24.249Z,43.70
2018-04-07T16:49:51.777Z,43.50
2018-04-07T16:52:19.394Z,43.10
2018-04-07T16:54:47.684Z,43.50
2018-04-07T16:57:15.195Z,44.00
2018-04-07T16:59:42.727Z,47.00
2018-04-07T17:02:10.239Z,44.90
2018-04-07T17:04:37.779Z,45.20
2018-04-07T17:07:05.331Z,44.50
2018-04-07T17:09:33.004Z,44.40
2018-04-07T17:12:00.630Z,45.10
2018-04-07T17:14:28.185Z,47.10
2018-04-07T17:16:55.702Z,45.30
2018-04-07T17:19:24.313Z,49.00
2018-04-07T17:21:51.857Z,48.90
2018-04-07T17:24:20.159Z,47.80
2018-04-07T17:26:48.464Z,48.00
2018-04-07T17:29:16.100Z,47.90
2018-04-07T17:31:43.631Z,48.30
2018-04-07T17:34:11.176Z,48.30
2018-04-07T17:36:39.443Z,48.20
2018-04-07T17:39:07.812Z,49.10
2018-04-07T17:41:35.371Z,48.90
2018-04-07T17:44:02.927Z,48.60
2018-04-07T17:46:30.479Z,49.30
2018-04-07T17:49:06.099Z,48.90
2018-04-07T17:51:25.540Z,49.60
2018-04-07T17:53:53.071Z,50.40
2018-04-07T17:56:21.414Z,52.20
2018-04-07T17:58:48.959Z,52.10
2018-04-07T18:01:16.491Z,52.80
2018-04-07T18:03:44.830Z,51.60
2018-04-07T18:06:12.355Z,51.60
2018-04-07T18:08:39.911Z,53.00
2018-04-07T18:11:08.320Z,53.60
2018-04-07T18:13:36.642Z,54.10
2018-04-07T18:16:04.224Z,54.00
2018-04-07T18:18:31.869Z,54.60
2018-04-07T18:20:59.508Z,53.60
2018-04-07T18:23:27.046Z,53.90
2018-04-07T18:25:54.592Z,54.80
2018-04-07T18:28:22.124Z,54.50
2018-04-07T18:30:50.471Z,54.90
2018-04-07T18:33:18.066Z,54.70
2018-04-07T18:35:45.570Z,54.60
2018-04-07T18:38:13.846Z,55.80
2018-04-07T18:40:41.387Z,55.80
2018-04-07T18:43:08.895Z,56.50
2018-04-07T18:45:37.226Z,57.20
2018-04-07T18:48:04.774Z,57.10
2018-04-07T18:50:32.511Z,56.90
2018-04-07T18:53:00.076Z,58.50
2018-04-07T18:55:27.626Z,57.70
2018-04-07T18:57:55.199Z,57.60
2018-04-07T19:00:22.712Z,58.80
2018-04-07T19:02:51.019Z,58.70
2018-04-07T19:05:18.563Z,58.70
2018-04-07T19:07:46.888Z,59.80
2018-04-07T19:10:14.407Z,59.80
2018-04-07T19:12:41.962Z,59.60
2018-04-07T19:15:09.467Z,60.40
2018-04-07T19:17:37.766Z,59.90
2018-04-07T19:20:05.295Z,59.80
2018-04-07T19:22:32.941Z,61.90
2018-04-07T19:25:00.828Z,61.70
2018-04-07T19:27:30.223Z,62.00
2018-04-07T19:30:01.024Z,63.20
2018-04-07T19:32:33.034Z,63.30
2018-04-07T19:35:00.794Z,63.20
2018-04-07T19:37:34.399Z,63.00
2018-04-07T19:40:01.974Z,62.90
2018-04-07T19:42:29.858Z,64.70
2018-04-07T19:44:58.703Z,65.20
2018-04-07T19:47:26.224Z,65.10
2018-04-07T19:49:53.754Z,65.80
2018-04-07T19:52:21.319Z,68.70
2018-04-07T19:54:48.897Z,68.90
2018-04-07T19:57:16.402Z,68.20
2018-04-07T19:59:43.969Z,67.20
2018-04-07T20:02:12.278Z,69.10
2018-04-07T20:04:40.584Z,70.30
2018-04-07T20:07:08.103Z,70.10
2018-04-07T20:09:35.631Z,71.90
2018-04-07T20:12:03.191Z,70.50
2018-04-07T20:14:30.787Z,70.80
2018-04-07T20:16:58.393Z,71.30
2018-04-07T20:19:25.904Z,71.40
2018-04-07T20:21:53.435Z,71.50
2018-04-07T20:24:20.978Z,72.50
2018-04-07T20:26:48.523Z,72.70
2018-04-07T20:29:16.039Z,72.80
2018-04-07T20:31:44.462Z,74.40
2018-04-07T20:34:12.770Z,75.20
2018-04-07T20:36:40.279Z,74.40
2018-04-07T20:39:07.815Z,73.60
2018-04-07T20:41:35.579Z,76.30
2018-04-07T20:44:04.198Z,75.50
2018-04-07T20:46:31.825Z,75.60
2018-04-07T20:48:59.399Z,77.70
2018-04-07T20:51:27.690Z,77.90
2018-04-07T20:53:55.987Z,77.50
2018-04-07T20:56:24.256Z,77.50
2018-04-07T20:58:51.831Z,77.30
2018-04-07T21:01:19.970Z,78.30
2018-04-07T21:03:47.915Z,76.90
2018-04-07T21:06:16.248Z,78.30
2018-04-07T21:08:43.755Z,79.60
2018-04-07T21:11:11.291Z,78.40
2018-04-07T21:13:38.807Z,77.80
2018-04-07T21:16:07.184Z,78.60
2018-04-07T21:18:35.543Z,79.40
2018-04-07T21:21:03.091Z,79.20
2018-04-07T21:23:30.708Z,78.30
2018-04-07T21:25:58.322Z,79.40
2018-04-07T21:28:28.011Z,79.50
2018-04-07T21:30:55.606Z,80.00
2018-04-07T21:33:23.983Z,79.90
2018-04-07T21:35:52.215Z,79.00
2018-04-07T21:38:19.807Z,78.70
2018-04-07T21:40:47.318Z,80.40
2018-04-07T21:43:14.884Z,80.50
2018-04-07T21:45:42.400Z,79.00
2018-04-07T21:48:09.928Z,80.20
2018-04-07T21:50:37.440Z,80.50
2018-04-07T21:53:05.099Z,80.20
2018-04-07T21:55:32.722Z,80.00
2018-04-07T21:58:00.721Z,79.20
2018-04-07T22:00:28.257Z,79.60
2018-04-07T22:02:55.787Z,79.20
2018-04-07T22:05:24.090Z,79.20
2018-04-07T22:07:51.638Z,79.10
2018-04-07T22:10:19.220Z,81.20
2018-04-07T22:12:47.491Z,79.10
2018-04-07T22:15:15.023Z,79.10
2018-04-07T22:17:42.567Z,79.20
2018-04-07T22:20:10.106Z,81.10
2018-04-07T22:22:38.406Z,79.80
2018-04-07T22:25:06.823Z,78.30
2018-04-07T22:27:34.425Z,78.20
2018-04-07T22:30:02.034Z,80.20
2018-04-07T22:32:30.403Z,79.20
2018-04-07T22:34:58.801Z,79.40
2018-04-07T22:37:26.391Z,79.00
2018-04-07T22:39:54.708Z,79.00
2018-04-07T22:42:22.327Z,79.00
2018-04-07T22:44:49.969Z,79.70
2018-04-07T22:47:17.516Z,78.90
2018-04-07T22:49:45.788Z,79.80
2018-04-07T22:52:14.067Z,81.50
2018-04-07T22:54:42.402Z,80.30
2018-04-07T22:57:09.883Z,80.10
2018-04-07T22:59:37.431Z,80.80
2018-04-07T23:02:04.981Z,81.60
2018-04-07T23:04:33.312Z,81.90
2018-04-07T23:07:00.931Z,81.90
2018-04-07T23:09:29.384Z,80.90
2018-04-07T23:11:56.918Z,80.80
2018-04-07T23:14:24.434Z,81.40
2018-04-07T23:16:52.103Z,82.50
2018-04-07T23:19:19.643Z,78.90
2018-04-07T23:21:47.206Z,78.70
2018-04-07T23:24:14.711Z,81.10
2018-04-07T23:26:42.251Z,79.70
2018-04-07T23:29:09.755Z,78.60
2018-04-07T23:31:37.284Z,80.00
2018-04-07T23:34:04.827Z,78.40
2018-04-07T23:36:32.455Z,78.80
2018-04-07T23:39:00.841Z,79.20
2018-04-07T23:41:28.399Z,79.20
2018-04-07T23:43:55.935Z,79.50
2018-04-07T23:46:24.250Z,80.10
2018-04-07T23:48:51.823Z,80.10
2018-04-07T23:51:19.360Z,79.40
2018-04-07T23:53:47.657Z,80.30
2018-04-07T23:56:15.934Z,80.70
2018-04-07T23:58:43.466Z,80.50
